sensor_id;sensor_type;location;lat;lon;timestamp;pressure;altitude;pressure_sealevel;temperature;humidity
56182;BME280;51963;46.052;14.544;2023-01-24T00:01:56;99404.44;;;1.70;100.00
56182;BME280;51963;46.052;14.544;2023-01-24T00:04:21;99409.84;;;1.67;100.00
56182;BME280;51963;46.052;14.544;2023-01-24T00:06:47;99410.69;;;1.55;100.00
56182;BME280;51963;46.052;14.544;2023-01-24T00:09:12;99401.81;;;1.44;100.00
56182;BME280;51963;46.052;14.544;2023-01-24T00:11:38;99410.78;;;1.27;100.00
56182;BME280;51963;46.052;14.544;2023-01-24T00:14:03;99413.59;;;1.24;100.00
56182;BME280;51963;46.052;14.544;2023-01-24T00:16:29;99414.63;;;1.22;100.00
56182;BME280;51963;46.052;14.544;2023-01-24T00:18:54;99407.47;;;1.25;100.00
56182;BME280;51963;46.052;14.544;2023-01-24T00:21:20;99407.78;;;1.34;100.00
56182;BME280;51963;46.052;14.544;2023-01-24T00:23:53;99411.63;;;1.41;100.00
56182;BME280;51963;46.052;14.544;2023-01-24T00:26:19;99413.00;;;1.34;100.00
56182;BME280;51963;46.052;14.544;2023-01-24T00:28:45;99406.53;;;1.26;100.00
56182;BME280;51963;46.052;14.544;2023-01-24T00:31:11;99412.44;;;1.15;100.00
56182;BME280;51963;46.052;14.544;2023-01-24T00:33:37;99415.88;;;1.16;100.00
56182;BME280;51963;46.052;14.544;2023-01-24T00:36:02;99416.38;;;1.08;100.00
56182;BME280;51963;46.052;14.544;2023-01-24T00:38:30;99419.38;;;1.02;100.00
56182;BME280;51963;46.052;14.544;2023-01-24T00:40:56;99419.59;;;0.99;100.00
56182;BME280;51963;46.052;14.544;2023-01-24T00:43:22;99417.72;;;1.01;100.00
56182;BME280;51963;46.052;14.544;2023-01-24T00:45:47;99423.78;;;1.01;100.00
56182;BME280;51963;46.052;14.544;2023-01-24T00:48:13;99435.00;;;1.02;100.00
56182;BME280;51963;46.052;14.544;2023-01-24T00:50:39;99432.31;;;1.04;100.00
56182;BME280;51963;46.052;14.544;2023-01-24T00:53:05;99437.31;;;1.07;100.00
56182;BME280;51963;46.052;14.544;2023-01-24T00:55:31;99445.88;;;1.09;100.00
56182;BME280;51963;46.052;14.544;2023-01-24T00:57:56;99434.53;;;1.10;100.00
56182;BME280;51963;46.052;14.544;2023-01-24T01:00:22;99440.91;;;1.31;100.00
56182;BME280;51963;46.052;14.544;2023-01-24T01:02:48;99444.06;;;1.37;100.00
56182;BME280;51963;46.052;14.544;2023-01-24T01:05:14;99446.56;;;1.51;100.00
56182;BME280;51963;46.052;14.544;2023-01-24T01:07:40;99450.31;;;1.47;100.00
56182;BME280;51963;46.052;14.544;2023-01-24T01:10:06;99446.25;;;1.56;100.00
56182;BME280;51963;46.052;14.544;2023-01-24T01:12:32;99447.91;;;1.57;100.00
56182;BME280;51963;46.052;14.544;2023-01-24T01:14:57;99451.97;;;1.61;100.00
56182;BME280;51963;46.052;14.544;2023-01-24T01:17:23;99459.72;;;1.63;100.00
56182;BME280;51963;46.052;14.544;2023-01-24T01:19:51;99454.31;;;1.66;100.00
56182;BME280;51963;46.052;14.544;2023-01-24T01:22:17;99455.81;;;1.42;100.00
56182;BME280;51963;46.052;14.544;2023-01-24T01:24:43;99455.75;;;1.44;100.00
56182;BME280;51963;46.052;14.544;2023-01-24T01:27:08;99455.13;;;1.53;100.00
56182;BME280;51963;46.052;14.544;2023-01-24T01:29:34;99451.38;;;1.57;100.00
56182;BME280;51963;46.052;14.544;2023-01-24T01:31:59;99448.88;;;1.69;100.00
56182;BME280;51963;46.052;14.544;2023-01-24T01:34:25;99443.88;;;1.66;100.00
56182;BME280;51963;46.052;14.544;2023-01-24T01:36:50;99442.09;;;1.66;100.00
56182;BME280;51963;46.052;14.544;2023-01-24T01:39:16;99448.03;;;1.55;100.00
56182;BME280;51963;46.052;14.544;2023-01-24T01:41:41;99443.53;;;1.44;100.00
56182;BME280;51963;46.052;14.544;2023-01-24T01:47:04;99443.66;;;1.43;100.00
56182;BME280;51963;46.052;14.544;2023-01-24T01:49:32;99438.41;;;1.17;100.00
56182;BME280;51963;46.052;14.544;2023-01-24T01:51:59;99447.47;;;1.24;100.00
56182;BME280;51963;46.052;14.544;2023-01-24T01:54:27;99451.53;;;1.28;100.00
56182;BME280;51963;46.052;14.544;2023-01-24T01:56:59;99445.41;;;1.29;100.00
56182;BME280;51963;46.052;14.544;2023-01-24T01:59:33;99449.88;;;1.27;100.00
56182;BME280;51963;46.052;14.544;2023-01-24T02:02:03;99451.09;;;1.22;100.00
56182;BME280;51963;46.052;14.544;2023-01-24T02:04:31;99453.91;;;1.19;100.00
56182;BME280;51963;46.052;14.544;2023-01-24T02:09:25;99459.84;;;1.21;100.00
56182;BME280;51963;46.052;14.544;2023-01-24T02:11:52;99449.69;;;1.30;100.00
56182;BME280;51963;46.052;14.544;2023-01-24T02:14:19;99443.84;;;1.40;100.00
56182;BME280;51963;46.052;14.544;2023-01-24T02:17:04;99441.44;;;1.37;100.00
56182;BME280;51963;46.052;14.544;2023-01-24T02:19:37;99446.97;;;1.45;100.00
56182;BME280;51963;46.052;14.544;2023-01-24T02:22:19;99442.50;;;1.60;100.00
56182;BME280;51963;46.052;14.544;2023-01-24T02:24:49;99431.34;;;1.71;100.00
56182;BME280;51963;46.052;14.544;2023-01-24T02:27:18;99430.28;;;1.73;100.00
56182;BME280;51963;46.052;14.544;2023-01-24T02:29:43;99433.53;;;1.64;100.00
56182;BME280;51963;46.052;14.544;2023-01-24T02:32:10;99435.31;;;1.64;100.00
56182;BME280;51963;46.052;14.544;2023-01-24T02:34:36;99431.75;;;1.39;100.00
56182;BME280;51963;46.052;14.544;2023-01-24T02:37:06;99433.50;;;1.25;100.00
56182;BME280;51963;46.052;14.544;2023-01-24T02:39:35;99436.66;;;1.30;100.00
56182;BME280;51963;46.052;14.544;2023-01-24T02:42:10;99430.09;;;1.51;100.00
56182;BME280;51963;46.052;14.544;2023-01-24T02:47:04;99433.44;;;1.40;100.00
56182;BME280;51963;46.052;14.544;2023-01-24T02:49:29;99442.78;;;1.29;100.00
56182;BME280;51963;46.052;14.544;2023-01-24T02:51:55;99439.66;;;1.24;100.00
56182;BME280;51963;46.052;14.544;2023-01-24T02:54:39;99440.91;;;1.31;100.00
56182;BME280;51963;46.052;14.544;2023-01-24T02:57:05;99435.91;;;1.28;100.00
56182;BME280;51963;46.052;14.544;2023-01-24T02:59:49;99437.59;;;1.29;100.00
56182;BME280;51963;46.052;14.544;2023-01-24T03:02:15;99442.19;;;1.52;100.00
56182;BME280;51963;46.052;14.544;2023-01-24T03:04:40;99443.56;;;1.57;100.00
56182;BME280;51963;46.052;14.544;2023-01-24T03:07:07;99444.91;;;1.63;100.00
56182;BME280;51963;46.052;14.544;2023-01-24T03:09:33;99438.31;;;1.70;100.00
56182;BME280;51963;46.052;14.544;2023-01-24T03:12:02;99440.19;;;1.68;100.00
56182;BME280;51963;46.052;14.544;2023-01-24T03:14:50;99438.03;;;1.49;100.00
56182;BME280;51963;46.052;14.544;2023-01-24T03:17:34;99440.31;;;1.41;100.00
56182;BME280;51963;46.052;14.544;2023-01-24T03:20:18;99449.28;;;1.37;100.00
56182;BME280;51963;46.052;14.544;2023-01-24T03:23:03;99446.88;;;1.34;100.00
56182;BME280;51963;46.052;14.544;2023-01-24T03:25:47;99438.13;;;1.35;100.00
56182;BME280;51963;46.052;14.544;2023-01-24T03:28:31;99444.06;;;1.37;100.00
56182;BME280;51963;46.052;14.544;2023-01-24T03:31:16;99449.56;;;1.32;100.00
56182;BME280;51963;46.052;14.544;2023-01-24T03:34:00;99452.38;;;1.29;100.00
56182;BME280;51963;46.052;14.544;2023-01-24T03:36:44;99451.63;;;1.27;100.00
56182;BME280;51963;46.052;14.544;2023-01-24T03:39:10;99448.84;;;1.43;100.00
56182;BME280;51963;46.052;14.544;2023-01-24T03:41:56;99446.13;;;1.44;100.00
56182;BME280;51963;46.052;14.544;2023-01-24T03:44:22;99441.78;;;1.45;100.00
56182;BME280;51963;46.052;14.544;2023-01-24T03:46:49;99448.56;;;1.60;100.00
56182;BME280;51963;46.052;14.544;2023-01-24T03:49:14;99458.09;;;1.34;100.00
56182;BME280;51963;46.052;14.544;2023-01-24T03:51:42;99454.56;;;1.22;100.00
56182;BME280;51963;46.052;14.544;2023-01-24T03:54:26;99455.09;;;1.27;100.00
56182;BME280;51963;46.052;14.544;2023-01-24T03:56:57;99453.25;;;1.55;100.00
56182;BME280;51963;46.052;14.544;2023-01-24T03:59:24;99456.38;;;1.60;100.00
56182;BME280;51963;46.052;14.544;2023-01-24T04:01:50;99452.72;;;1.63;100.00
56182;BME280;51963;46.052;14.544;2023-01-24T04:04:20;99446.91;;;1.59;100.00
56182;BME280;51963;46.052;14.544;2023-01-24T04:06:46;99447.41;;;1.65;100.00
56182;BME280;51963;46.052;14.544;2023-01-24T04:09:13;99459.81;;;1.61;100.00
56182;BME280;51963;46.052;14.544;2023-01-24T04:11:40;99453.22;;;1.42;100.00
56182;BME280;51963;46.052;14.544;2023-01-24T04:14:19;99466.03;;;1.33;100.00
56182;BME280;51963;46.052;14.544;2023-01-24T04:16:54;99457.03;;;1.24;100.00
56182;BME280;51963;46.052;14.544;2023-01-24T04:19:25;99456.44;;;1.20;100.00
56182;BME280;51963;46.052;14.544;2023-01-24T04:21:51;99461.00;;;1.16;100.00
56182;BME280;51963;46.052;14.544;2023-01-24T04:24:16;99461.09;;;1.15;100.00
56182;BME280;51963;46.052;14.544;2023-01-24T04:26:43;99464.97;;;1.22;100.00
56182;BME280;51963;46.052;14.544;2023-01-24T04:29:15;99467.25;;;1.27;100.00
56182;BME280;51963;46.052;14.544;2023-01-24T04:31:41;99460.75;;;1.47;100.00
56182;BME280;51963;46.052;14.544;2023-01-24T04:34:32;99456.88;;;1.40;100.00
56182;BME280;51963;46.052;14.544;2023-01-24T04:36:59;99467.91;;;1.30;100.00
56182;BME280;51963;46.052;14.544;2023-01-24T04:39:25;99462.38;;;1.22;100.00
56182;BME280;51963;46.052;14.544;2023-01-24T04:42:05;99460.41;;;1.39;100.00
56182;BME280;51963;46.052;14.544;2023-01-24T04:44:31;99456.88;;;1.40;100.00
56182;BME280;51963;46.052;14.544;2023-01-24T04:46:59;99466.16;;;1.57;100.00
56182;BME280;51963;46.052;14.544;2023-01-24T04:49:24;99470.56;;;1.69;100.00
56182;BME280;51963;46.052;14.544;2023-01-24T04:51:50;99464.72;;;1.66;100.00
56182;BME280;51963;46.052;14.544;2023-01-24T04:54:21;99474.75;;;1.72;100.00
56182;BME280;51963;46.052;14.544;2023-01-24T04:56:48;99474.53;;;1.75;100.00
56182;BME280;51963;46.052;14.544;2023-01-24T04:59:13;99472.34;;;1.69;100.00
56182;BME280;51963;46.052;14.544;2023-01-24T05:01:41;99477.66;;;1.80;100.00
56182;BME280;51963;46.052;14.544;2023-01-24T05:04:18;99482.25;;;1.64;100.00
56182;BME280;51963;46.052;14.544;2023-01-24T05:06:43;99479.53;;;1.78;100.00
56182;BME280;51963;46.052;14.544;2023-01-24T05:09:09;99477.47;;;1.83;100.00
56182;BME280;51963;46.052;14.544;2023-01-24T05:11:47;99482.66;;;1.57;100.00
56182;BME280;51963;46.052;14.544;2023-01-24T05:14:12;99491.81;;;1.50;100.00
56182;BME280;51963;46.052;14.544;2023-01-24T05:16:38;99484.84;;;1.64;100.00
56182;BME280;51963;46.052;14.544;2023-01-24T05:19:04;99485.38;;;1.69;100.00
56182;BME280;51963;46.052;14.544;2023-01-24T05:21:30;99492.06;;;1.73;100.00
56182;BME280;51963;46.052;14.544;2023-01-24T05:23:55;99497.34;;;1.58;100.00
56182;BME280;51963;46.052;14.544;2023-01-24T05:26:23;99497.97;;;1.49;100.00
56182;BME280;51963;46.052;14.544;2023-01-24T05:28:50;99494.53;;;1.61;100.00
56182;BME280;51963;46.052;14.544;2023-01-24T05:31:16;99492.16;;;1.71;100.00
56182;BME280;51963;46.052;14.544;2023-01-24T05:33:42;99496.00;;;1.66;100.00
56182;BME280;51963;46.052;14.544;2023-01-24T05:36:10;99501.19;;;1.40;100.00
56182;BME280;51963;46.052;14.544;2023-01-24T05:38:37;99498.78;;;1.37;100.00
56182;BME280;51963;46.052;14.544;2023-01-24T05:41:06;99513.81;;;1.46;100.00
56182;BME280;51963;46.052;14.544;2023-01-24T05:43:33;99515.38;;;1.49;100.00
56182;BME280;51963;46.052;14.544;2023-01-24T05:46:09;99513.50;;;1.51;100.00
56182;BME280;51963;46.052;14.544;2023-01-24T05:48:41;99520.16;;;1.55;100.00
56182;BME280;51963;46.052;14.544;2023-01-24T05:51:08;99517.22;;;1.46;100.00
56182;BME280;51963;46.052;14.544;2023-01-24T05:53:35;99515.88;;;1.41;100.00
56182;BME280;51963;46.052;14.544;2023-01-24T05:56:03;99518.25;;;1.31;100.00
56182;BME280;51963;46.052;14.544;2023-01-24T05:58:32;99539.41;;;1.26;100.00
56182;BME280;51963;46.052;14.544;2023-01-24T06:01:07;99530.44;;;1.30;100.00
56182;BME280;51963;46.052;14.544;2023-01-24T06:03:38;99534.72;;;1.31;100.00
56182;BME280;51963;46.052;14.544;2023-01-24T06:06:04;99530.25;;;1.34;100.00
56182;BME280;51963;46.052;14.544;2023-01-24T06:08:30;99531.25;;;1.31;100.00
56182;BME280;51963;46.052;14.544;2023-01-24T06:11:00;99541.22;;;1.39;100.00
56182;BME280;51963;46.052;14.544;2023-01-24T06:13:27;99533.31;;;1.53;100.00
56182;BME280;51963;46.052;14.544;2023-01-24T06:15:52;99540.94;;;1.56;100.00
56182;BME280;51963;46.052;14.544;2023-01-24T06:18:25;99548.97;;;1.53;100.00
56182;BME280;51963;46.052;14.544;2023-01-24T06:20:50;99551.31;;;1.43;100.00
56182;BME280;51963;46.052;14.544;2023-01-24T06:23:26;99548.28;;;1.37;100.00
56182;BME280;51963;46.052;14.544;2023-01-24T06:25:56;99553.97;;;1.29;100.00
56182;BME280;51963;46.052;14.544;2023-01-24T06:28:22;99561.38;;;1.22;100.00
56182;BME280;51963;46.052;14.544;2023-01-24T06:30:54;99565.06;;;1.33;100.00
56182;BME280;51963;46.052;14.544;2023-01-24T06:38:33;99558.50;;;1.12;100.00
56182;BME280;51963;46.052;14.544;2023-01-24T06:41:01;99564.72;;;1.24;100.00
56182;BME280;51963;46.052;14.544;2023-01-24T06:43:27;99567.13;;;1.27;100.00
56182;BME280;51963;46.052;14.544;2023-01-24T06:45:53;99569.94;;;1.24;100.00
56182;BME280;51963;46.052;14.544;2023-01-24T06:48:19;99580.59;;;1.07;100.00
56182;BME280;51963;46.052;14.544;2023-01-24T06:50:45;99584.81;;;1.22;100.00
56182;BME280;51963;46.052;14.544;2023-01-24T06:53:10;99579.75;;;1.34;100.00
56182;BME280;51963;46.052;14.544;2023-01-24T06:55:38;99581.63;;;1.31;100.00
56182;BME280;51963;46.052;14.544;2023-01-24T06:58:03;99582.56;;;1.30;100.00
56182;BME280;51963;46.052;14.544;2023-01-24T07:00:29;99590.56;;;1.27;100.00
56182;BME280;51963;46.052;14.544;2023-01-24T07:03:01;99588.72;;;1.29;100.00
56182;BME280;51963;46.052;14.544;2023-01-24T07:05:28;99591.25;;;1.44;100.00
56182;BME280;51963;46.052;14.544;2023-01-24T07:07:53;99591.66;;;1.38;100.00
56182;BME280;51963;46.052;14.544;2023-01-24T07:10:19;99588.84;;;1.41;100.00
56182;BME280;51963;46.052;14.544;2023-01-24T07:12:45;99583.03;;;1.50;100.00
56182;BME280;51963;46.052;14.544;2023-01-24T07:15:10;99585.88;;;1.60;100.00
56182;BME280;51963;46.052;14.544;2023-01-24T07:17:36;99599.25;;;1.68;100.00
56182;BME280;51963;46.052;14.544;2023-01-24T07:20:02;99596.69;;;1.81;100.00
56182;BME280;51963;46.052;14.544;2023-01-24T07:22:27;99608.19;;;1.92;100.00
56182;BME280;51963;46.052;14.544;2023-01-24T07:24:53;99605.16;;;1.98;100.00
56182;BME280;51963;46.052;14.544;2023-01-24T07:27:18;99611.81;;;1.89;100.00
56182;BME280;51963;46.052;14.544;2023-01-24T07:29:44;99609.91;;;1.78;100.00
56182;BME280;51963;46.052;14.544;2023-01-24T07:32:10;99606.09;;;1.56;100.00
56182;BME280;51963;46.052;14.544;2023-01-24T07:34:35;99606.31;;;1.53;100.00
56182;BME280;51963;46.052;14.544;2023-01-24T07:37:01;99610.84;;;1.37;100.00
56182;BME280;51963;46.052;14.544;2023-01-24T07:39:27;99615.75;;;1.69;100.00
56182;BME280;51963;46.052;14.544;2023-01-24T07:41:53;99608.13;;;1.38;100.00
56182;BME280;51963;46.052;14.544;2023-01-24T07:44:18;99620.75;;;1.17;100.00
56182;BME280;51963;46.052;14.544;2023-01-24T07:46:44;99620.13;;;1.41;100.00
56182;BME280;51963;46.052;14.544;2023-01-24T07:49:09;99621.88;;;1.68;100.00
56182;BME280;51963;46.052;14.544;2023-01-24T07:51:35;99615.34;;;1.75;100.00
56182;BME280;51963;46.052;14.544;2023-01-24T07:54:01;99619.69;;;1.61;100.00
56182;BME280;51963;46.052;14.544;2023-01-24T07:56:26;99617.94;;;1.75;100.00
56182;BME280;51963;46.052;14.544;2023-01-24T07:58:52;99621.16;;;1.66;100.00
56182;BME280;51963;46.052;14.544;2023-01-24T08:01:18;99610.03;;;1.49;100.00
56182;BME280;51963;46.052;14.544;2023-01-24T08:03:44;99612.28;;;1.68;100.00
56182;BME280;51963;46.052;14.544;2023-01-24T08:06:10;99620.59;;;2.01;100.00
56182;BME280;51963;46.052;14.544;2023-01-24T08:08:35;99616.84;;;2.05;100.00
56182;BME280;51963;46.052;14.544;2023-01-24T08:11:01;99622.94;;;2.18;100.00
56182;BME280;51963;46.052;14.544;2023-01-24T08:13:26;99626.88;;;2.24;100.00
56182;BME280;51963;46.052;14.544;2023-01-24T08:15:52;99627.13;;;2.34;100.00
56182;BME280;51963;46.052;14.544;2023-01-24T08:18:17;99622.31;;;2.41;100.00
56182;BME280;51963;46.052;14.544;2023-01-24T08:20:43;99626.59;;;2.42;100.00
56182;BME280;51963;46.052;14.544;2023-01-24T08:23:08;99618.97;;;2.52;100.00
56182;BME280;51963;46.052;14.544;2023-01-24T08:25:34;99624.41;;;2.48;100.00
56182;BME280;51963;46.052;14.544;2023-01-24T08:27:59;99632.03;;;2.52;100.00
56182;BME280;51963;46.052;14.544;2023-01-24T08:30:25;99632.75;;;2.54;100.00
56182;BME280;51963;46.052;14.544;2023-01-24T08:33:08;99632.75;;;2.54;100.00
56182;BME280;51963;46.052;14.544;2023-01-24T08:35:37;99632.88;;;2.39;100.00
56182;BME280;51963;46.052;14.544;2023-01-24T08:38:02;99631.16;;;2.12;100.00
56182;BME280;51963;46.052;14.544;2023-01-24T08:40:28;99637.56;;;2.34;100.00
56182;BME280;51963;46.052;14.544;2023-01-24T08:42:53;99640.38;;;2.31;100.00
56182;BME280;51963;46.052;14.544;2023-01-24T08:45:19;99640.25;;;2.19;100.00
56182;BME280;51963;46.052;14.544;2023-01-24T08:47:50;99642.88;;;2.19;100.00
56182;BME280;51963;46.052;14.544;2023-01-24T08:50:15;99639.81;;;2.13;100.00
56182;BME280;51963;46.052;14.544;2023-01-24T08:52:41;99641.63;;;2.64;100.00
56182;BME280;51963;46.052;14.544;2023-01-24T08:55:07;99642.03;;;2.84;100.00
56182;BME280;51963;46.052;14.544;2023-01-24T08:57:33;99644.94;;;2.92;100.00
56182;BME280;51963;46.052;14.544;2023-01-24T08:59:58;99646.94;;;2.62;100.00
56182;BME280;51963;46.052;14.544;2023-01-24T09:02:24;99646.53;;;2.56;100.00
56182;BME280;51963;46.052;14.544;2023-01-24T09:04:49;99648.00;;;2.73;100.00
56182;BME280;51963;46.052;14.544;2023-01-24T09:07:15;99642.97;;;2.83;100.00
56182;BME280;51963;46.052;14.544;2023-01-24T09:09:40;99650.28;;;2.90;100.00
56182;BME280;51963;46.052;14.544;2023-01-24T09:12:06;99654.66;;;2.90;100.00
56182;BME280;51963;46.052;14.544;2023-01-24T09:14:32;99653.84;;;2.89;100.00
56182;BME280;51963;46.052;14.544;2023-01-24T09:16:57;99657.75;;;3.21;100.00
56182;BME280;51963;46.052;14.544;2023-01-24T09:19:22;99659.63;;;3.19;100.00
56182;BME280;51963;46.052;14.544;2023-01-24T09:21:51;99655.78;;;3.12;100.00
56182;BME280;51963;46.052;14.544;2023-01-24T09:24:19;99656.53;;;3.01;100.00
56182;BME280;51963;46.052;14.544;2023-01-24T09:26:45;99657.56;;;2.98;100.00
56182;BME280;51963;46.052;14.544;2023-01-24T09:29:10;99670.13;;;2.93;100.00
56182;BME280;51963;46.052;14.544;2023-01-24T09:31:36;99663.22;;;3.05;100.00
56182;BME280;51963;46.052;14.544;2023-01-24T09:34:02;99680.31;;;3.22;100.00
56182;BME280;51963;46.052;14.544;2023-01-24T09:36:27;99669.78;;;3.23;100.00
56182;BME280;51963;46.052;14.544;2023-01-24T09:38:55;99677.19;;;3.17;100.00
56182;BME280;51963;46.052;14.544;2023-01-24T09:44:00;99673.84;;;3.15;100.00
56182;BME280;51963;46.052;14.544;2023-01-24T09:46:28;99661.13;;;2.97;100.00
56182;BME280;51963;46.052;14.544;2023-01-24T09:48:58;99667.09;;;3.12;100.00
56182;BME280;51963;46.052;14.544;2023-01-24T09:51:27;99663.75;;;3.34;100.00
56182;BME280;51963;46.052;14.544;2023-01-24T09:53:55;99659.34;;;3.48;100.00
56182;BME280;51963;46.052;14.544;2023-01-24T09:56:24;99661.84;;;3.49;100.00
56182;BME280;51963;46.052;14.544;2023-01-24T09:59:00;99652.94;;;3.52;100.00
56182;BME280;51963;46.052;14.544;2023-01-24T10:01:35;99660.25;;;3.60;100.00
56182;BME280;51963;46.052;14.544;2023-01-24T10:04:04;99649.78;;;3.60;100.00
56182;BME280;51963;46.052;14.544;2023-01-24T10:06:30;99652.78;;;3.66;100.00
56182;BME280;51963;46.052;14.544;2023-01-24T10:16:34;99667.59;;;3.17;100.00
56182;BME280;51963;46.052;14.544;2023-01-24T10:21:40;99665.94;;;3.03;100.00
56182;BME280;51963;46.052;14.544;2023-01-24T10:24:11;99665.88;;;3.29;100.00
56182;BME280;51963;46.052;14.544;2023-01-24T10:26:39;99662.28;;;3.67;100.00
56182;BME280;51963;46.052;14.544;2023-01-24T10:29:14;99652.19;;;3.99;100.00
56182;BME280;51963;46.052;14.544;2023-01-24T10:32:00;99655.47;;;4.14;100.00
56182;BME280;51963;46.052;14.544;2023-01-24T10:36:57;99647.41;;;4.28;100.00
56182;BME280;51963;46.052;14.544;2023-01-24T10:39:24;99665.31;;;4.10;100.00
56182;BME280;51963;46.052;14.544;2023-01-24T10:41:50;99656.97;;;4.05;100.00
56182;BME280;51963;46.052;14.544;2023-01-24T10:44:26;99656.22;;;4.27;100.00
56182;BME280;51963;46.052;14.544;2023-01-24T10:49:28;99641.28;;;4.63;100.00
56182;BME280;51963;46.052;14.544;2023-01-24T10:54:33;99643.28;;;4.71;100.00
56182;BME280;51963;46.052;14.544;2023-01-24T10:57:10;99637.81;;;4.74;100.00
56182;BME280;51963;46.052;14.544;2023-01-24T10:59:40;99635.66;;;4.79;100.00
56182;BME280;51963;46.052;14.544;2023-01-24T11:02:07;99631.28;;;4.80;100.00
56182;BME280;51963;46.052;14.544;2023-01-24T11:04:43;99634.34;;;4.39;100.00
56182;BME280;51963;46.052;14.544;2023-01-24T11:07:19;99632.06;;;4.35;100.00
56182;BME280;51963;46.052;14.544;2023-01-24T11:09:51;99623.00;;;4.28;100.00
56182;BME280;51963;46.052;14.544;2023-01-24T11:12:16;99627.75;;;4.22;100.00
56182;BME280;51963;46.052;14.544;2023-01-24T11:14:43;99626.91;;;4.10;100.00
56182;BME280;51963;46.052;14.544;2023-01-24T11:17:28;99613.31;;;4.05;100.00
56182;BME280;51963;46.052;14.544;2023-01-24T11:19:58;99615.56;;;3.99;100.00
56182;BME280;51963;46.052;14.544;2023-01-24T11:22:26;99607.44;;;3.90;100.00
56182;BME280;51963;46.052;14.544;2023-01-24T11:24:59;99612.53;;;3.80;100.00
56182;BME280;51963;46.052;14.544;2023-01-24T11:27:25;99618.81;;;3.78;100.00
56182;BME280;51963;46.052;14.544;2023-01-24T11:30:05;99613.31;;;3.70;100.00
56182;BME280;51963;46.052;14.544;2023-01-24T11:32:38;99604.03;;;3.65;100.00
56182;BME280;51963;46.052;14.544;2023-01-24T11:40:39;99598.81;;;4.01;100.00
56182;BME280;51963;46.052;14.544;2023-01-24T11:48:11;99583.03;;;4.37;100.00
56182;BME280;51963;46.052;14.544;2023-01-24T11:53:21;99586.47;;;4.15;100.00
56182;BME280;51963;46.052;14.544;2023-01-24T11:56:10;99588.50;;;4.45;100.00
56182;BME280;51963;46.052;14.544;2023-01-24T11:58:42;99582.44;;;4.33;100.00
56182;BME280;51963;46.052;14.544;2023-01-24T12:01:30;99585.84;;;4.11;100.00
56182;BME280;51963;46.052;14.544;2023-01-24T12:06:51;99573.69;;;3.99;100.00
56182;BME280;51963;46.052;14.544;2023-01-24T12:09:40;99582.00;;;3.92;100.00
56182;BME280;51963;46.052;14.544;2023-01-24T12:12:20;99574.50;;;3.88;100.00
56182;BME280;51963;46.052;14.544;2023-01-24T12:22:24;99566.84;;;3.73;100.00
56182;BME280;51963;46.052;14.544;2023-01-24T12:24:54;99569.78;;;3.69;100.00
56182;BME280;51963;46.052;14.544;2023-01-24T12:27:24;99567.38;;;3.54;100.00
56182;BME280;51963;46.052;14.544;2023-01-24T12:29:53;99560.75;;;4.08;100.00
56182;BME280;51963;46.052;14.544;2023-01-24T12:32:23;99567.88;;;4.06;100.00
56182;BME280;51963;46.052;14.544;2023-01-24T12:37:23;99567.66;;;4.09;100.00
56182;BME280;51963;46.052;14.544;2023-01-24T12:51:42;99563.97;;;4.58;100.00
56182;BME280;51963;46.052;14.544;2023-01-24T12:58:40;99559.38;;;3.80;100.00
56182;BME280;51963;46.052;14.544;2023-01-24T13:04:06;99568.69;;;3.95;100.00
56182;BME280;51963;46.052;14.544;2023-01-24T13:11:55;99562.44;;;3.74;100.00
56182;BME280;51963;46.052;14.544;2023-01-24T13:14:24;99564.59;;;3.80;100.00
56182;BME280;51963;46.052;14.544;2023-01-24T13:19:30;99565.75;;;3.64;100.00
56182;BME280;51963;46.052;14.544;2023-01-24T13:22:16;99569.44;;;3.62;100.00
56182;BME280;51963;46.052;14.544;2023-01-24T13:24:49;99574.88;;;3.59;100.00
56182;BME280;51963;46.052;14.544;2023-01-24T13:32:23;99569.97;;;3.54;100.00
56182;BME280;51963;46.052;14.544;2023-01-24T13:34:54;99571.88;;;3.52;100.00
56182;BME280;51963;46.052;14.544;2023-01-24T13:37:26;99565.09;;;3.49;100.00
56182;BME280;51963;46.052;14.544;2023-01-24T13:42:58;99566.59;;;3.41;100.00
56182;BME280;51963;46.052;14.544;2023-01-24T13:47:49;99563.47;;;3.35;100.00
56182;BME280;51963;46.052;14.544;2023-01-24T13:50:16;99569.28;;;3.28;100.00
56182;BME280;51963;46.052;14.544;2023-01-24T13:52:46;99578.66;;;3.30;100.00
56182;BME280;51963;46.052;14.544;2023-01-24T13:57:47;99575.69;;;3.23;100.00
56182;BME280;51963;46.052;14.544;2023-01-24T14:00:14;99581.19;;;3.32;100.00
56182;BME280;51963;46.052;14.544;2023-01-24T14:07:57;99587.13;;;3.34;100.00
56182;BME280;51963;46.052;14.544;2023-01-24T14:12:59;99586.72;;;3.27;100.00
56182;BME280;51963;46.052;14.544;2023-01-24T14:15:26;99587.44;;;3.29;100.00
56182;BME280;51963;46.052;14.544;2023-01-24T14:17:51;99590.19;;;3.28;100.00
56182;BME280;51963;46.052;14.544;2023-01-24T14:22:57;99588.84;;;3.22;100.00
56182;BME280;51963;46.052;14.544;2023-01-24T14:26:06;99585.63;;;3.18;100.00
56182;BME280;51963;46.052;14.544;2023-01-24T14:28:19;99588.97;;;3.20;100.00
56182;BME280;51963;46.052;14.544;2023-01-24T14:30:59;99592.97;;;3.13;100.00
56182;BME280;51963;46.052;14.544;2023-01-24T14:33:29;99583.56;;;3.11;100.00
56182;BME280;51963;46.052;14.544;2023-01-24T14:36:05;99590.22;;;3.15;100.00
56182;BME280;51963;46.052;14.544;2023-01-24T14:38:32;99591.91;;;3.16;100.00
56182;BME280;51963;46.052;14.544;2023-01-24T14:40:58;99594.41;;;3.17;100.00
56182;BME280;51963;46.052;14.544;2023-01-24T14:43:27;99596.91;;;3.19;100.00
56182;BME280;51963;46.052;14.544;2023-01-24T14:45:57;99598.28;;;3.12;100.00
56182;BME280;51963;46.052;14.544;2023-01-24T14:48:23;99597.78;;;3.06;100.00
56182;BME280;51963;46.052;14.544;2023-01-24T14:50:59;99596.97;;;3.06;100.00